Time;durP1;ratioP1;P1;durP2;ratioP2;P2;SDS_P1;SDS_P2;PMS_P1;PMS_P2;Temp;Humidity;BMP_temperature;BMP_pressure;BME280_temperature;BME280_humidity;BME280_pressure;Samples;Min_cycle;Max_cycle;Signal;HPM_P1;HPM_P2
2023/06/29 00:01:04;;;;;;;14.40;8.30;;;;;;;;;;10488507;28;20116;-82
2023/06/29 00:06:05;;;;;;;15.50;7.70;;;;;;;;;;10452427;28;20033;-79
2023/06/29 00:11:07;;;;;;;16.00;7.85;;;;;;;;;;10453993;28;20051;-86
2023/06/29 00:16:08;;;;;;;11.40;7.13;;;;;;;;;;10489922;28;20048;-87
2023/06/29 00:21:08;;;;;;;13.97;7.47;;;;;;;;;;10469389;28;20040;-83
2023/06/29 00:26:10;;;;;;;14.18;8.02;;;;;;;;;;10464996;28;20038;-78
2023/06/29 00:31:11;;;;;;;16.38;8.05;;;;;;;;;;10486483;28;20079;-84
2023/06/29 00:36:11;;;;;;;13.30;8.40;;;;;;;;;;10468698;28;20017;-78
2023/06/29 00:41:12;;;;;;;15.48;8.63;;;;;;;;;;10467653;28;20036;-78
2023/06/29 00:46:16;;;;;;;19.00;9.53;;;;;;;;;;10472185;28;20013;-81
2023/06/29 00:51:16;;;;;;;17.00;9.98;;;;;;;;;;10486441;28;20837;-81
2023/06/29 00:56:19;;;;;;;18.83;10.43;;;;;;;;;;10506251;28;20021;-79
2023/06/29 01:01:19;;;;;;;16.43;9.87;;;;;;;;;;10488708;28;20103;-83
2023/06/29 01:06:22;;;;;;;18.75;8.98;;;;;;;;;;10518195;28;20024;-78
2023/06/29 01:11:23;;;;;;;19.35;9.43;;;;;;;;;;10468171;28;20467;-77
2023/06/29 01:16:24;;;;;;;18.25;9.45;;;;;;;;;;10465494;28;20139;-80
2023/06/29 01:21:25;;;;;;;16.92;10.15;;;;;;;;;;10462749;28;20552;-80
2023/06/29 01:26:26;;;;;;;16.80;9.35;;;;;;;;;;10451600;28;20036;-86
2023/06/29 01:31:28;;;;;;;21.30;11.27;;;;;;;;;;10431325;28;20017;-80
2023/06/29 01:36:36;;;;;;;18.55;10.45;;;;;;;;;;10438426;28;20091;-77
2023/06/29 01:41:40;;;;;;;19.88;9.88;;;;;;;;;;10445442;28;20024;-79
2023/06/29 01:46:41;;;;;;;19.25;10.57;;;;;;;;;;10465185;28;20029;-82
2023/06/29 01:51:41;;;;;;;19.38;10.48;;;;;;;;;;10434201;28;20036;-81
2023/06/29 01:56:41;;;;;;;21.15;9.95;;;;;;;;;;10429069;28;20040;-83
2023/06/29 02:01:42;;;;;;;16.33;10.65;;;;;;;;;;10432863;28;20043;-82
2023/06/29 02:06:43;;;;;;;17.13;10.45;;;;;;;;;;10449448;28;20075;-82
2023/06/29 02:11:43;;;;;;;20.17;11.18;;;;;;;;;;10446038;28;20028;-80
2023/06/29 02:16:45;;;;;;;22.33;12.73;;;;;;;;;;10415397;28;20056;-83
2023/06/29 02:21:45;;;;;;;19.30;11.73;;;;;;;;;;10423200;28;20037;-80
2023/06/29 02:26:47;;;;;;;25.17;13.48;;;;;;;;;;10436002;28;20040;-79
2023/06/29 02:31:47;;;;;;;27.33;13.30;;;;;;;;;;10426510;28;20551;-82
2023/06/29 02:36:49;;;;;;;26.35;13.00;;;;;;;;;;10450883;28;20029;-79
2023/06/29 02:41:49;;;;;;;23.60;12.90;;;;;;;;;;10477780;28;20028;-79
2023/06/29 02:46:49;;;;;;;25.38;13.18;;;;;;;;;;10459254;28;20040;-77
2023/06/29 02:51:49;;;;;;;23.63;12.13;;;;;;;;;;10461788;28;20028;-82
2023/06/29 02:56:52;;;;;;;25.20;13.88;;;;;;;;;;10486993;28;20488;-77
2023/06/29 03:01:53;;;;;;;27.75;14.02;;;;;;;;;;10506808;28;20028;-79
2023/06/29 03:06:56;;;;;;;23.13;12.70;;;;;;;;;;10488063;28;20055;-77
2023/06/29 03:11:58;;;;;;;25.20;13.73;;;;;;;;;;10478699;28;20099;-77
2023/06/29 03:16:58;;;;;;;23.73;12.90;;;;;;;;;;10505823;28;20083;-78
2023/06/29 03:21:58;;;;;;;24.33;13.60;;;;;;;;;;10423825;28;20087;-77
2023/06/29 03:26:59;;;;;;;26.33;14.63;;;;;;;;;;10420040;28;20118;-77
2023/06/29 03:31:59;;;;;;;23.42;13.95;;;;;;;;;;10419129;28;20479;-81
2023/06/29 03:37:00;;;;;;;22.65;13.52;;;;;;;;;;10425527;28;20025;-84
2023/06/29 03:42:00;;;;;;;24.55;14.13;;;;;;;;;;10427376;28;20472;-79
2023/06/29 03:47:00;;;;;;;21.95;13.75;;;;;;;;;;10426932;28;20506;-77
2023/06/29 03:52:00;;;;;;;26.50;13.35;;;;;;;;;;10444686;28;20488;-77
2023/06/29 03:57:02;;;;;;;21.27;13.87;;;;;;;;;;10426797;28;20102;-78
2023/06/29 04:02:03;;;;;;;24.10;13.98;;;;;;;;;;10439314;28;20103;-79
2023/06/29 04:07:04;;;;;;;31.42;15.32;;;;;;;;;;10409836;28;20021;-82
2023/06/29 04:12:05;;;;;;;25.65;15.18;;;;;;;;;;10427290;28;20479;-77
2023/06/29 04:17:05;;;;;;;26.42;14.50;;;;;;;;;;10443009;28;20606;-78
2023/06/29 04:22:05;;;;;;;32.55;15.45;;;;;;;;;;10473551;28;20165;-77
2023/06/29 04:27:06;;;;;;;24.63;13.77;;;;;;;;;;10444376;28;20106;-77
2023/06/29 04:32:06;;;;;;;20.67;13.18;;;;;;;;;;10452585;28;20024;-83
2023/06/29 04:37:07;;;;;;;18.42;12.13;;;;;;;;;;10455551;28;20017;-78
2023/06/29 04:42:12;;;;;;;22.70;12.43;;;;;;;;;;10436535;28;20459;-80
2023/06/29 04:47:14;;;;;;;19.42;13.38;;;;;;;;;;10447587;28;20480;-78
2023/06/29 04:52:18;;;;;;;27.33;13.20;;;;;;;;;;10463325;28;20086;-78
2023/06/29 04:57:18;;;;;;;19.63;12.43;;;;;;;;;;10463199;28;20024;-79
2023/06/29 05:02:18;;;;;;;21.50;12.05;;;;;;;;;;10463223;28;20118;-79
2023/06/29 05:07:19;;;;;;;15.20;10.52;;;;;;;;;;10465151;28;20038;-80
2023/06/29 05:12:21;;;;;;;14.52;10.25;;;;;;;;;;10465250;28;20094;-78
2023/06/29 05:17:21;;;;;;;16.35;10.45;;;;;;;;;;10457454;28;20106;-80
2023/06/29 05:22:22;;;;;;;11.95;9.13;;;;;;;;;;10466901;28;20028;-79
2023/06/29 05:27:23;;;;;;;17.02;9.80;;;;;;;;;;10467207;28;20028;-79
2023/06/29 05:32:24;;;;;;;12.68;9.40;;;;;;;;;;10465757;28;20058;-78
2023/06/29 05:37:24;;;;;;;14.02;8.68;;;;;;;;;;10466570;28;20126;-79
2023/06/29 05:42:25;;;;;;;15.52;7.85;;;;;;;;;;10465637;28;20025;-78
2023/06/29 05:47:25;;;;;;;15.03;8.10;;;;;;;;;;10466201;28;20032;-77
2023/06/29 05:52:25;;;;;;;12.88;8.30;;;;;;;;;;10466397;28;20358;-77
2023/06/29 05:57:27;;;;;;;11.00;8.07;;;;;;;;;;10465070;28;20028;-77
2023/06/29 06:02:27;;;;;;;12.40;8.68;;;;;;;;;;10465038;28;20039;-78
2023/06/29 06:07:28;;;;;;;14.73;9.45;;;;;;;;;;10465122;28;20024;-78
2023/06/29 06:12:30;;;;;;;13.13;7.60;;;;;;;;;;10483484;28;20021;-78
2023/06/29 06:17:30;;;;;;;17.43;7.33;;;;;;;;;;10440402;28;20049;-77
2023/06/29 06:22:30;;;;;;;14.52;7.25;;;;;;;;;;10439445;28;20033;-78
2023/06/29 06:27:32;;;;;;;15.57;7.45;;;;;;;;;;10422542;28;20116;-79
2023/06/29 06:32:32;;;;;;;14.75;6.80;;;;;;;;;;10439745;28;20056;-78
2023/06/29 06:37:33;;;;;;;16.00;7.32;;;;;;;;;;10439318;28;20107;-82
2023/06/29 06:42:34;;;;;;;7.85;6.63;;;;;;;;;;10439975;28;20377;-77
2023/06/29 06:47:35;;;;;;;12.27;6.50;;;;;;;;;;10438281;28;20499;-81
2023/06/29 06:52:35;;;;;;;8.20;6.18;;;;;;;;;;10438892;28;20029;-78
2023/06/29 06:57:36;;;;;;;11.30;6.07;;;;;;;;;;10447592;28;20426;-77
2023/06/29 07:02:37;;;;;;;11.20;6.03;;;;;;;;;;10439935;28;20390;-77
2023/06/29 07:07:37;;;;;;;13.55;4.70;;;;;;;;;;10437713;28;20473;-77
2023/06/29 07:12:37;;;;;;;10.10;5.38;;;;;;;;;;10438302;28;20018;-77
2023/06/29 07:17:38;;;;;;;13.10;5.40;;;;;;;;;;10438088;28;20444;-78
2023/06/29 07:22:39;;;;;;;10.15;4.40;;;;;;;;;;10438339;28;20044;-76
2023/06/29 07:27:39;;;;;;;10.27;4.38;;;;;;;;;;10438802;28;20115;-77
2023/06/29 07:32:40;;;;;;;10.80;4.57;;;;;;;;;;10437909;28;20021;-78
2023/06/29 07:37:40;;;;;;;6.78;4.18;;;;;;;;;;10437357;28;20475;-76
2023/06/29 07:42:40;;;;;;;6.03;3.63;;;;;;;;;;10434569;28;20025;-78
2023/06/29 07:47:41;;;;;;;10.15;4.05;;;;;;;;;;10437387;28;20427;-78
2023/06/29 07:52:41;;;;;;;5.78;3.78;;;;;;;;;;10439881;28;20086;-76
2023/06/29 07:57:42;;;;;;;4.43;2.80;;;;;;;;;;10439213;28;20017;-77
2023/06/29 08:02:42;;;;;;;5.07;2.83;;;;;;;;;;10437668;28;20021;-77
2023/06/29 08:07:43;;;;;;;7.45;3.00;;;;;;;;;;10436913;28;20029;-77
2023/06/29 08:12:43;;;;;;;5.70;2.63;;;;;;;;;;10437523;28;20017;-77
2023/06/29 08:17:43;;;;;;;5.20;2.88;;;;;;;;;;10434345;28;20055;-76
2023/06/29 08:22:45;;;;;;;3.75;2.92;;;;;;;;;;10423895;28;20033;-81
2023/06/29 08:27:45;;;;;;;5.32;3.38;;;;;;;;;;10427423;28;20033;-77
2023/06/29 08:32:48;;;;;;;6.15;2.65;;;;;;;;;;10427642;28;20020;-77
2023/06/29 08:37:48;;;;;;;6.90;3.55;;;;;;;;;;10427752;28;20017;-77
2023/06/29 08:42:50;;;;;;;3.42;2.00;;;;;;;;;;10426588;28;20025;-75
2023/06/29 08:47:53;;;;;;;3.42;1.90;;;;;;;;;;10426821;28;20021;-74
2023/06/29 08:52:55;;;;;;;4.07;2.20;;;;;;;;;;10426533;28;20859;-76
2023/06/29 08:57:55;;;;;;;4.03;2.72;;;;;;;;;;10443899;28;20017;-77
2023/06/29 09:02:56;;;;;;;9.20;2.97;;;;;;;;;;10426579;28;20028;-77
2023/06/29 09:07:56;;;;;;;5.18;2.63;;;;;;;;;;10426236;28;20151;-77
2023/06/29 09:12:56;;;;;;;11.03;2.63;;;;;;;;;;10442945;28;20020;-77
2023/06/29 09:17:57;;;;;;;3.25;2.00;;;;;;;;;;10471255;28;20474;-78
2023/06/29 09:22:58;;;;;;;3.20;2.03;;;;;;;;;;10484554;28;20033;-77
2023/06/29 09:28:05;;;;;;;4.33;1.90;;;;;;;;;;10465935;28;20039;-75
2023/06/29 09:33:09;;;;;;;2.72;1.80;;;;;;;;;;10466297;28;20573;-77
2023/06/29 09:38:10;;;;;;;2.83;1.92;;;;;;;;;;10484299;28;20062;-77
2023/06/29 09:43:14;;;;;;;7.90;1.73;;;;;;;;;;10465959;28;20482;-77
2023/06/29 09:48:14;;;;;;;3.50;1.60;;;;;;;;;;10448423;28;20624;-77
2023/06/29 09:53:15;;;;;;;1.67;1.10;;;;;;;;;;10481538;28;20017;-77
2023/06/29 09:58:17;;;;;;;2.40;1.70;;;;;;;;;;10481742;28;20023;-77
2023/06/29 10:03:17;;;;;;;7.78;1.88;;;;;;;;;;10464029;28;20438;-76
2023/06/29 10:08:18;;;;;;;4.82;2.17;;;;;;;;;;10464178;28;20020;-78
2023/06/29 10:13:19;;;;;;;3.25;2.00;;;;;;;;;;10464313;28;20017;-76
2023/06/29 10:18:24;;;;;;;4.00;1.98;;;;;;;;;;10464030;28;20490;-76
2023/06/29 10:23:25;;;;;;;6.93;1.80;;;;;;;;;;10482157;28;20035;-77
2023/06/29 10:28:26;;;;;;;4.78;1.63;;;;;;;;;;10481907;28;20355;-78
2023/06/29 10:33:26;;;;;;;5.07;1.80;;;;;;;;;;10463472;28;20477;-77
2023/06/29 10:38:31;;;;;;;1.60;1.30;;;;;;;;;;10481268;28;20103;-77
2023/06/29 10:43:50;;;;;;;3.50;1.45;;;;;;;;;;10462690;28;20374;-78
2023/06/29 10:49:00;;;;;;;2.88;1.48;;;;;;;;;;10462865;28;20124;-78
2023/06/29 10:54:02;;;;;;;6.30;1.85;;;;;;;;;;10463218;28;20116;-75
2023/06/29 10:59:07;;;;;;;3.35;1.23;;;;;;;;;;10462797;28;20030;-78
2023/06/29 11:04:10;;;;;;;2.13;1.20;;;;;;;;;;10476452;28;20121;-81
2023/06/29 11:09:14;;;;;;;3.35;1.20;;;;;;;;;;10480175;28;20051;-82
2023/06/29 11:14:14;;;;;;;3.50;1.70;;;;;;;;;;10480968;28;20021;-76
2023/06/29 11:19:15;;;;;;;3.08;1.70;;;;;;;;;;10480420;28;20049;-75
2023/06/29 11:24:15;;;;;;;3.33;1.65;;;;;;;;;;10481504;28;20028;-76
2023/06/29 11:29:16;;;;;;;5.07;2.33;;;;;;;;;;10462229;28;20135;-77
2023/06/29 11:34:16;;;;;;;2.58;2.38;;;;;;;;;;10480335;28;20352;-78
2023/06/29 11:39:17;;;;;;;5.10;2.35;;;;;;;;;;10462546;28;20093;-78
2023/06/29 11:44:21;;;;;;;6.40;2.17;;;;;;;;;;10434649;28;20035;-76
2023/06/29 11:49:22;;;;;;;4.68;2.20;;;;;;;;;;10450430;28;20111;-76
2023/06/29 11:54:22;;;;;;;4.90;2.00;;;;;;;;;;10461991;28;20020;-78
2023/06/29 11:59:23;;;;;;;3.07;2.00;;;;;;;;;;10486727;28;20028;-76
2023/06/29 12:04:24;;;;;;;2.97;1.80;;;;;;;;;;10470109;28;20082;-77
2023/06/29 12:09:43;;;;;;;5.47;1.98;;;;;;;;;;10469677;28;20024;-81
2023/06/29 12:14:44;;;;;;;5.50;1.83;;;;;;;;;;10469292;28;20041;-76
2023/06/29 12:19:44;;;;;;;3.05;2.13;;;;;;;;;;10475337;28;20052;-77
2023/06/29 12:24:49;;;;;;;2.33;1.85;;;;;;;;;;10470149;28;20028;-75
2023/06/29 12:29:50;;;;;;;3.72;2.00;;;;;;;;;;10469740;28;20553;-80
2023/06/29 12:34:50;;;;;;;5.18;2.05;;;;;;;;;;10469270;28;20043;-81
2023/06/29 12:39:51;;;;;;;4.20;2.28;;;;;;;;;;10480673;28;20032;-80
2023/06/29 12:44:52;;;;;;;8.95;2.40;;;;;;;;;;10468269;28;20031;-76
2023/06/29 12:49:52;;;;;;;5.53;2.17;;;;;;;;;;10468565;28;20028;-79
2023/06/29 12:54:52;;;;;;;6.40;1.90;;;;;;;;;;10468021;28;20407;-78
2023/06/29 12:59:53;;;;;;;3.42;2.13;;;;;;;;;;10467910;28;20034;-77
2023/06/29 13:04:54;;;;;;;3.88;1.88;;;;;;;;;;10486551;28;20028;-83
2023/06/29 13:09:54;;;;;;;2.08;1.80;;;;;;;;;;10467162;28;20020;-76
2023/06/29 13:14:55;;;;;;;3.90;2.23;;;;;;;;;;10468449;28;20032;-82
2023/06/29 13:19:55;;;;;;;2.75;2.10;;;;;;;;;;10482300;28;20801;-80
2023/06/29 13:24:55;;;;;;;2.45;2.03;;;;;;;;;;10482529;28;20488;-76
2023/06/29 13:29:56;;;;;;;6.13;2.40;;;;;;;;;;10466534;28;21975;-76
2023/06/29 13:34:56;;;;;;;5.30;2.53;;;;;;;;;;10466761;28;20074;-75
2023/06/29 13:39:56;;;;;;;8.77;3.92;;;;;;;;;;10466338;28;20480;-78
2023/06/29 13:44:56;;;;;;;3.67;2.15;;;;;;;;;;10466133;28;20029;-83
2023/06/29 13:49:57;;;;;;;3.58;2.50;;;;;;;;;;10468378;28;20029;-77
2023/06/29 13:54:57;;;;;;;3.42;2.72;;;;;;;;;;10484002;28;20024;-77
2023/06/29 13:59:58;;;;;;;3.77;2.17;;;;;;;;;;10486138;28;20028;-82
2023/06/29 14:04:59;;;;;;;5.53;2.40;;;;;;;;;;10426783;28;20021;-80
2023/06/29 14:09:59;;;;;;;5.38;2.00;;;;;;;;;;10442048;28;20365;-78
2023/06/29 14:14:59;;;;;;;4.20;2.10;;;;;;;;;;10425052;28;20017;-80
2023/06/29 14:20:00;;;;;;;6.15;2.35;;;;;;;;;;10433285;28;20478;-78
2023/06/29 14:25:00;;;;;;;3.53;2.20;;;;;;;;;;10464534;28;20412;-76
2023/06/29 14:30:00;;;;;;;4.97;2.73;;;;;;;;;;10463544;28;20456;-77
2023/06/29 14:35:01;;;;;;;6.68;2.92;;;;;;;;;;10481588;28;20882;-76
2023/06/29 14:40:02;;;;;;;7.50;2.97;;;;;;;;;;10465003;28;20503;-77
2023/06/29 14:45:04;;;;;;;3.65;2.55;;;;;;;;;;10463397;28;20107;-79
2023/06/29 14:50:05;;;;;;;5.25;3.53;;;;;;;;;;10463405;28;20012;-82
2023/06/29 14:55:06;;;;;;;5.28;2.50;;;;;;;;;;10463956;28;20012;-82
2023/06/29 15:00:08;;;;;;;4.70;3.10;;;;;;;;;;10463029;28;20568;-77
2023/06/29 15:05:10;;;;;;;7.40;2.40;;;;;;;;;;10422582;28;20108;-78
2023/06/29 15:10:10;;;;;;;4.55;2.80;;;;;;;;;;10440214;28;20013;-82
2023/06/29 15:15:10;;;;;;;3.85;2.78;;;;;;;;;;10425137;28;20048;-82
2023/06/29 15:20:11;;;;;;;4.43;2.77;;;;;;;;;;10462118;28;20074;-79
2023/06/29 15:25:11;;;;;;;8.45;3.30;;;;;;;;;;10481761;28;20466;-81
2023/06/29 15:30:12;;;;;;;4.45;2.78;;;;;;;;;;10447372;28;20043;-76
2023/06/29 15:35:13;;;;;;;6.55;3.63;;;;;;;;;;10488883;28;20036;-83
2023/06/29 15:40:13;;;;;;;5.25;3.47;;;;;;;;;;10452121;28;20416;-75
2023/06/29 15:45:13;;;;;;;6.00;3.33;;;;;;;;;;10443910;28;20024;-82
2023/06/29 15:50:14;;;;;;;3.97;3.40;;;;;;;;;;10437744;28;20013;-77
2023/06/29 15:55:14;;;;;;;7.05;4.15;;;;;;;;;;10454937;28;20772;-77
2023/06/29 16:00:14;;;;;;;7.63;3.80;;;;;;;;;;10429317;28;20794;-75
2023/06/29 16:05:15;;;;;;;10.57;3.70;;;;;;;;;;10455374;28;20098;-79
2023/06/29 16:10:15;;;;;;;6.28;3.90;;;;;;;;;;10444105;28;20303;-78
2023/06/29 16:15:16;;;;;;;4.38;3.33;;;;;;;;;;10417870;28;20029;-77
2023/06/29 16:20:16;;;;;;;5.18;3.47;;;;;;;;;;10426682;28;20025;-80
2023/06/29 16:25:18;;;;;;;7.20;4.13;;;;;;;;;;10443663;28;20412;-76
2023/06/29 16:30:19;;;;;;;6.00;3.60;;;;;;;;;;10485852;28;20286;-83
2023/06/29 16:35:19;;;;;;;5.47;3.30;;;;;;;;;;10434684;28;20511;-83
2023/06/29 16:40:19;;;;;;;5.68;3.67;;;;;;;;;;10455147;28;20551;-82
2023/06/29 16:45:21;;;;;;;6.20;3.60;;;;;;;;;;10425969;28;20078;-83
2023/06/29 16:50:22;;;;;;;6.35;3.10;;;;;;;;;;10459565;28;20387;-77
2023/06/29 16:55:22;;;;;;;5.65;3.60;;;;;;;;;;10442148;28;20031;-83
2023/06/29 17:00:22;;;;;;;5.88;4.18;;;;;;;;;;10468836;28;20081;-85
2023/06/29 17:05:24;;;;;;;6.63;3.90;;;;;;;;;;10469289;28;20588;-86
2023/06/29 17:10:24;;;;;;;5.55;3.40;;;;;;;;;;10469746;28;20064;-80
2023/06/29 17:15:24;;;;;;;7.23;4.33;;;;;;;;;;10456512;28;20473;-80
2023/06/29 17:20:25;;;;;;;6.65;4.13;;;;;;;;;;10413375;28;20121;-78
2023/06/29 17:25:25;;;;;;;6.45;4.85;;;;;;;;;;10400799;28;20028;-77
2023/06/29 17:30:25;;;;;;;4.82;3.90;;;;;;;;;;10407080;28;20056;-76
2023/06/29 17:35:26;;;;;;;7.10;4.05;;;;;;;;;;10402916;28;20028;-76
2023/06/29 17:40:26;;;;;;;6.13;4.47;;;;;;;;;;10389828;28;20055;-76
2023/06/29 17:45:26;;;;;;;5.90;4.28;;;;;;;;;;10411086;28;20060;-76
2023/06/29 17:50:27;;;;;;;7.43;5.13;;;;;;;;;;10420973;28;20052;-79
2023/06/29 17:55:27;;;;;;;6.88;4.95;;;;;;;;;;10414481;28;20416;-75
2023/06/29 18:00:28;;;;;;;11.07;4.68;;;;;;;;;;10403724;28;20052;-82
2023/06/29 18:05:29;;;;;;;7.93;5.40;;;;;;;;;;10395681;28;20088;-79
2023/06/29 18:10:29;;;;;;;9.18;5.75;;;;;;;;;;10392405;28;20126;-77
2023/06/29 18:15:29;;;;;;;8.43;5.50;;;;;;;;;;10393621;28;20025;-81
2023/06/29 18:20:30;;;;;;;10.40;6.57;;;;;;;;;;10412822;28;20475;-77
2023/06/29 18:25:31;;;;;;;8.60;6.38;;;;;;;;;;10407707;28;20287;-81
2023/06/29 18:30:33;;;;;;;9.30;6.57;;;;;;;;;;10423357;28;20120;-83
2023/06/29 18:35:34;;;;;;;8.27;7.30;;;;;;;;;;10398661;28;20021;-80
2023/06/29 18:40:35;;;;;;;10.88;7.90;;;;;;;;;;10425815;28;20143;-77
2023/06/29 18:45:35;;;;;;;9.65;6.68;;;;;;;;;;10409375;28;20514;-80
2023/06/29 18:50:35;;;;;;;7.72;6.93;;;;;;;;;;10405228;28;20493;-76
2023/06/29 18:55:35;;;;;;;11.15;7.65;;;;;;;;;;10409983;28;20020;-81
2023/06/29 19:00:36;;;;;;;12.45;7.85;;;;;;;;;;10393633;28;20589;-80
2023/06/29 19:05:37;;;;;;;11.50;7.63;;;;;;;;;;10411731;28;20462;-81
2023/06/29 19:10:37;;;;;;;9.75;7.63;;;;;;;;;;10407354;28;20025;-82
2023/06/29 19:15:40;;;;;;;12.73;7.93;;;;;;;;;;10397667;28;20048;-76
2023/06/29 19:20:40;;;;;;;8.23;6.07;;;;;;;;;;10428035;28;20263;-76
2023/06/29 19:25:40;;;;;;;8.10;6.70;;;;;;;;;;10439775;28;20035;-77
2023/06/29 19:30:41;;;;;;;8.50;5.87;;;;;;;;;;10463839;28;20033;-81
2023/06/29 19:35:41;;;;;;;10.27;6.30;;;;;;;;;;10430803;28;20028;-79
2023/06/29 19:40:41;;;;;;;9.35;6.63;;;;;;;;;;10459412;28;20438;-81
2023/06/29 19:45:44;;;;;;;7.27;6.30;;;;;;;;;;10445295;28;20407;-79
2023/06/29 19:50:44;;;;;;;6.65;5.93;;;;;;;;;;10438920;28;20428;-78
2023/06/29 19:55:45;;;;;;;9.35;6.05;;;;;;;;;;10465206;28;20088;-76
2023/06/29 20:00:45;;;;;;;10.23;6.90;;;;;;;;;;10438531;28;20029;-76
2023/06/29 20:05:45;;;;;;;8.07;6.30;;;;;;;;;;10449171;28;20514;-80
2023/06/29 20:10:47;;;;;;;7.05;6.28;;;;;;;;;;10446144;28;20500;-79
2023/06/29 20:15:47;;;;;;;7.45;6.28;;;;;;;;;;10440667;28;20046;-81
2023/06/29 20:20:48;;;;;;;13.03;7.40;;;;;;;;;;10443371;28;20018;-81
2023/06/29 20:25:49;;;;;;;10.70;6.97;;;;;;;;;;10443499;28;20029;-80
2023/06/29 20:30:50;;;;;;;6.35;5.75;;;;;;;;;;10419742;28;20484;-84
2023/06/29 20:35:50;;;;;;;9.70;6.43;;;;;;;;;;10432270;28;20020;-78
2023/06/29 20:40:50;;;;;;;10.57;6.30;;;;;;;;;;10434577;28;20041;-84
2023/06/29 20:45:51;;;;;;;11.52;6.53;;;;;;;;;;10435327;28;20021;-84
2023/06/29 20:50:52;;;;;;;6.90;5.45;;;;;;;;;;10423601;28;20022;-85
2023/06/29 20:55:52;;;;;;;10.18;6.20;;;;;;;;;;10432764;28;20047;-82
2023/06/29 21:00:52;;;;;;;11.52;7.53;;;;;;;;;;10432785;28;20024;-84
2023/06/29 21:05:52;;;;;;;9.57;6.80;;;;;;;;;;10428597;28;20017;-80
2023/06/29 21:10:53;;;;;;;9.05;6.45;;;;;;;;;;10439033;28;20449;-77
2023/06/29 21:15:53;;;;;;;17.88;8.80;;;;;;;;;;10425880;28;20475;-80
2023/06/29 21:20:54;;;;;;;6.28;5.68;;;;;;;;;;10448609;28;20017;-78
2023/06/29 21:25:54;;;;;;;7.83;6.13;;;;;;;;;;10428123;28;20019;-82
2023/06/29 21:30:56;;;;;;;6.75;5.55;;;;;;;;;;10430466;28;20290;-81
2023/06/29 21:35:57;;;;;;;6.90;5.57;;;;;;;;;;10416182;28;20013;-82
2023/06/29 21:40:58;;;;;;;8.32;5.80;;;;;;;;;;10439038;28;20029;-80
2023/06/29 21:45:58;;;;;;;9.23;6.22;;;;;;;;;;10415028;28;20048;-81
2023/06/29 21:50:58;;;;;;;7.77;6.53;;;;;;;;;;10399982;28;20466;-77
2023/06/29 21:55:58;;;;;;;11.18;6.60;;;;;;;;;;10406732;28;20037;-76
2023/06/29 22:01:01;;;;;;;7.93;6.82;;;;;;;;;;10412389;28;20095;-79
2023/06/29 22:06:01;;;;;;;12.07;7.45;;;;;;;;;;10411960;28;20029;-78
2023/06/29 22:11:02;;;;;;;8.60;7.10;;;;;;;;;;10411549;28;20030;-79
2023/06/29 22:16:03;;;;;;;13.52;8.07;;;;;;;;;;10418242;28;20052;-77
2023/06/29 22:21:05;;;;;;;11.17;8.37;;;;;;;;;;10408983;28;20413;-76
2023/06/29 22:26:05;;;;;;;15.13;8.32;;;;;;;;;;10426146;28;20272;-83
2023/06/29 22:31:05;;;;;;;9.43;7.95;;;;;;;;;;10406385;28;20033;-77
2023/06/29 22:36:07;;;;;;;9.88;7.50;;;;;;;;;;10429302;28;20110;-74
2023/06/29 22:41:07;;;;;;;8.60;7.07;;;;;;;;;;10443868;28;20090;-81
2023/06/29 22:46:08;;;;;;;10.65;6.57;;;;;;;;;;10407271;28;20351;-79
2023/06/29 22:51:08;;;;;;;13.40;7.53;;;;;;;;;;10441695;28;20056;-79
2023/06/29 22:56:08;;;;;;;9.03;7.23;;;;;;;;;;10422609;28;20016;-79
2023/06/29 23:01:08;;;;;;;7.95;7.03;;;;;;;;;;10439747;28;20441;-76
2023/06/29 23:06:09;;;;;;;9.00;6.03;;;;;;;;;;10436780;28;20029;-77
2023/06/29 23:11:11;;;;;;;7.28;6.55;;;;;;;;;;10421032;28;20084;-79
2023/06/29 23:16:12;;;;;;;9.88;6.43;;;;;;;;;;10420521;28;20565;-80
2023/06/29 23:21:15;;;;;;;8.13;6.43;;;;;;;;;;10429140;28;20044;-75
2023/06/29 23:26:19;;;;;;;13.63;6.80;;;;;;;;;;10423777;28;20518;-80
2023/06/29 23:31:20;;;;;;;8.35;6.97;;;;;;;;;;10422959;28;20033;-82
2023/06/29 23:36:24;;;;;;;8.48;6.53;;;;;;;;;;10423969;28;20507;-82
2023/06/29 23:41:27;;;;;;;10.68;6.85;;;;;;;;;;10423736;28;20515;-79
2023/06/29 23:46:39;;;;;;;9.07;7.00;;;;;;;;;;10406138;28;20131;-77
2023/06/29 23:51:41;;;;;;;10.95;7.15;;;;;;;;;;10444486;28;20017;-83
2023/06/29 23:56:44;;;;;;;7.97;6.75;;;;;;;;;;10432283;28;20040;-81
